createdAt,value
2022-11-20T00:00:32.739Z,995.6
2022-11-20T00:01:32.756Z,995.58
2022-11-20T00:02:32.766Z,995.6
2022-11-20T00:03:32.779Z,995.66
2022-11-20T00:04:32.797Z,995.65
2022-11-20T00:05:32.834Z,995.57
2022-11-20T00:06:32.824Z,995.58
2022-11-20T00:07:32.868Z,995.6
2022-11-20T00:08:32.849Z,995.55
2022-11-20T00:09:32.861Z,995.54
2022-11-20T00:10:32.874Z,995.59
2022-11-20T00:11:32.886Z,995.49
2022-11-20T00:12:32.908Z,995.54
2022-11-20T00:13:32.915Z,995.51
2022-11-20T00:14:32.928Z,995.53
2022-11-20T00:15:32.941Z,995.54
2022-11-20T00:16:32.957Z,995.53
2022-11-20T00:17:32.965Z,995.46
2022-11-20T00:18:32.981Z,995.48
2022-11-20T00:19:32.997Z,995.46
2022-11-20T00:20:33.012Z,995.51
2022-11-20T00:21:33.043Z,995.48
2022-11-20T00:22:33.036Z,995.5
2022-11-20T00:23:33.050Z,995.48
2022-11-20T00:24:33.067Z,995.46
2022-11-20T00:25:33.076Z,995.51
2022-11-20T00:26:33.089Z,995.51
2022-11-20T00:27:33.104Z,995.54
2022-11-20T00:28:33.117Z,995.49
2022-11-20T00:29:33.132Z,995.48
2022-11-20T00:30:33.142Z,995.44
2022-11-20T00:31:33.157Z,995.4
2022-11-20T00:32:33.171Z,995.4
2022-11-20T00:33:33.185Z,995.4
2022-11-20T00:34:33.198Z,995.36
2022-11-20T00:35:33.207Z,995.3
2022-11-20T00:36:33.223Z,995.28
2022-11-20T00:37:33.257Z,995.29
2022-11-20T00:38:33.251Z,995.27
2022-11-20T00:39:33.260Z,995.22
2022-11-20T00:40:33.277Z,995.22
2022-11-20T00:41:33.290Z,995.21
2022-11-20T00:42:33.307Z,995.23
2022-11-20T00:43:33.318Z,995.21
2022-11-20T00:44:33.330Z,995.24
2022-11-20T00:45:33.340Z,995.26
2022-11-20T00:46:33.357Z,995.19
2022-11-20T00:47:33.369Z,995.19
2022-11-20T00:48:33.386Z,995.17
2022-11-20T00:49:33.397Z,995.14
2022-11-20T00:50:33.415Z,995.21
2022-11-20T00:51:33.775Z,995.19
2022-11-20T00:52:33.437Z,995.18
2022-11-20T00:53:33.472Z,995.23
2022-11-20T00:54:33.465Z,995.25
2022-11-20T00:55:33.475Z,995.2
2022-11-20T00:56:33.491Z,995.24
2022-11-20T00:57:33.505Z,995.26
2022-11-20T00:58:33.516Z,995.25
2022-11-20T00:59:33.530Z,995.27
2022-11-20T01:00:33.541Z,995.3
2022-11-20T01:01:33.648Z,995.26
2022-11-20T01:02:33.570Z,995.31
2022-11-20T01:03:33.582Z,995.32
2022-11-20T01:04:33.596Z,995.32
2022-11-20T01:05:33.609Z,995.31
2022-11-20T01:06:33.623Z,995.27
2022-11-20T01:07:33.649Z,995.25
2022-11-20T01:08:33.649Z,995.19
2022-11-20T01:09:33.697Z,995.24
2022-11-20T01:10:33.675Z,995.29
2022-11-20T01:11:33.695Z,995.31
2022-11-20T01:12:33.701Z,995.31
2022-11-20T01:13:33.717Z,995.31
2022-11-20T01:14:33.727Z,995.26
2022-11-20T01:15:33.741Z,995.3
2022-11-20T01:16:33.756Z,995.28
2022-11-20T01:17:33.768Z,995.25
2022-11-20T01:18:33.781Z,995.26
2022-11-20T01:19:33.796Z,995.22
2022-11-20T01:20:33.810Z,995.2
2022-11-20T01:21:33.821Z,995.16
2022-11-20T01:22:33.835Z,995.2
2022-11-20T01:23:33.850Z,995.19
2022-11-20T01:24:33.861Z,995.17
2022-11-20T01:25:33.875Z,995.15
2022-11-20T01:26:33.886Z,995.17
2022-11-20T01:27:33.902Z,995.21
2022-11-20T01:28:33.913Z,995.2
2022-11-20T01:29:33.929Z,995.25
2022-11-20T01:30:33.953Z,995.23
2022-11-20T01:31:33.953Z,995.19
2022-11-20T01:32:33.967Z,995.16
2022-11-20T01:33:33.982Z,995.12
2022-11-20T01:34:33.994Z,995.17
2022-11-20T01:35:34.008Z,995.16
2022-11-20T01:36:34.017Z,995.15
2022-11-20T01:37:34.038Z,995.16
2022-11-20T01:38:34.047Z,995.15
2022-11-20T01:39:34.062Z,995.14
2022-11-20T01:40:34.072Z,995.17
2022-11-20T01:41:34.091Z,995.18
2022-11-20T01:42:34.100Z,995.16
2022-11-20T01:43:34.114Z,995.15
2022-11-20T01:44:34.130Z,995.13
2022-11-20T01:45:34.139Z,995.13
2022-11-20T01:46:34.153Z,995.15
2022-11-20T01:47:34.166Z,995.16
2022-11-20T01:48:34.182Z,995.18
2022-11-20T01:49:34.190Z,995.16
2022-11-20T01:50:34.207Z,995.2
2022-11-20T01:51:34.521Z,995.25
2022-11-20T01:52:34.236Z,995.19
2022-11-20T01:53:34.245Z,995.24
2022-11-20T01:54:34.261Z,995.22
2022-11-20T01:55:34.275Z,995.19
2022-11-20T01:56:34.287Z,995.24
2022-11-20T01:57:34.302Z,995.2
2022-11-20T01:58:34.311Z,995.23
2022-11-20T01:59:34.326Z,995.25
2022-11-20T02:00:34.341Z,995.26
2022-11-20T02:01:34.390Z,995.24
2022-11-20T02:02:34.368Z,995.25
2022-11-20T02:03:34.382Z,995.25
2022-11-20T02:04:34.393Z,995.29
2022-11-20T02:05:34.404Z,995.24
2022-11-20T02:06:34.422Z,995.23
2022-11-20T02:07:34.445Z,995.21
2022-11-20T02:08:34.450Z,995.22
2022-11-20T02:09:34.458Z,995.21
2022-11-20T02:10:34.473Z,995.2
2022-11-20T02:11:34.489Z,995.19
2022-11-20T02:12:34.498Z,995.19
2022-11-20T02:13:34.514Z,995.22
2022-11-20T02:14:34.525Z,995.2
2022-11-20T02:15:34.541Z,995.17
2022-11-20T02:16:34.554Z,995.22
2022-11-20T02:17:34.564Z,995.22
2022-11-20T02:18:34.580Z,995.17
2022-11-20T02:19:34.589Z,995.16
2022-11-20T02:20:34.606Z,995.13
2022-11-20T02:21:34.615Z,995.17
2022-11-20T02:22:34.632Z,995.14
2022-11-20T02:23:34.651Z,995.17
2022-11-20T02:24:34.662Z,995.12
2022-11-20T02:25:34.669Z,995.15
2022-11-20T02:26:34.684Z,995.15
2022-11-20T02:27:34.696Z,995.14
2022-11-20T02:28:34.711Z,995.15
2022-11-20T02:29:34.723Z,995.14
2022-11-20T02:30:34.743Z,995.15
2022-11-20T02:31:34.747Z,995.16
2022-11-20T02:32:34.765Z,995.16
2022-11-20T02:33:34.780Z,995.18
2022-11-20T02:34:34.791Z,995.19
2022-11-20T02:35:34.801Z,995.16
2022-11-20T02:36:34.820Z,995.18
2022-11-20T02:37:34.831Z,995.17
2022-11-20T02:38:34.842Z,995.14
2022-11-20T02:39:34.857Z,995.13
2022-11-20T02:40:34.868Z,995.15
2022-11-20T02:41:34.883Z,995.15
2022-11-20T02:42:34.895Z,995.12
2022-11-20T02:43:34.908Z,995.1
2022-11-20T02:44:34.918Z,995.04
2022-11-20T02:45:34.935Z,994.99
2022-11-20T02:46:34.949Z,994.97
2022-11-20T02:47:34.963Z,994.96
2022-11-20T02:48:34.975Z,994.86
2022-11-20T02:49:34.988Z,994.88
2022-11-20T02:50:34.998Z,994.89
2022-11-20T02:51:35.216Z,994.87
2022-11-20T02:52:35.025Z,994.86
2022-11-20T02:53:35.063Z,994.85
2022-11-20T02:54:35.051Z,994.89
2022-11-20T02:55:35.066Z,994.87
2022-11-20T02:56:35.080Z,994.91
2022-11-20T02:57:35.090Z,994.89
2022-11-20T02:58:35.122Z,994.9
2022-11-20T02:59:35.120Z,994.9
2022-11-20T03:00:35.132Z,994.9
2022-11-20T03:01:35.200Z,994.86
2022-11-20T03:02:35.157Z,994.91
2022-11-20T03:03:35.174Z,994.85
2022-11-20T03:04:35.186Z,994.82
2022-11-20T03:05:35.200Z,994.82
2022-11-20T03:06:35.209Z,994.79
2022-11-20T03:07:35.277Z,994.73
2022-11-20T03:08:35.235Z,994.74
2022-11-20T03:09:35.248Z,994.81
2022-11-20T03:10:35.264Z,994.74
2022-11-20T03:11:35.276Z,994.72
2022-11-20T03:12:35.286Z,994.71
2022-11-20T03:13:35.300Z,994.63
2022-11-20T03:14:35.313Z,994.63
2022-11-20T03:15:35.330Z,994.66
2022-11-20T03:16:35.340Z,994.65
2022-11-20T03:17:35.354Z,994.64
2022-11-20T03:18:35.367Z,994.64
2022-11-20T03:19:35.382Z,994.6
2022-11-20T03:20:35.392Z,994.63
2022-11-20T03:21:35.408Z,994.65
2022-11-20T03:22:35.423Z,994.6
2022-11-20T03:23:35.438Z,994.6
2022-11-20T03:24:35.444Z,994.56
2022-11-20T03:25:35.459Z,994.57
2022-11-20T03:26:35.474Z,994.62
2022-11-20T03:27:35.484Z,994.65
2022-11-20T03:28:35.498Z,994.59
2022-11-20T03:29:35.512Z,994.64
2022-11-20T03:30:35.526Z,994.61
2022-11-20T03:31:35.535Z,994.55
2022-11-20T03:32:35.554Z,994.52
2022-11-20T03:33:35.567Z,994.48
2022-11-20T03:34:35.577Z,994.45
2022-11-20T03:35:35.591Z,994.5
2022-11-20T03:36:35.607Z,994.46
2022-11-20T03:37:35.617Z,994.45
2022-11-20T03:38:35.632Z,994.45
2022-11-20T03:39:35.644Z,994.49
2022-11-20T03:40:35.659Z,994.47
2022-11-20T03:41:35.669Z,994.47
2022-11-20T03:42:35.685Z,994.49
2022-11-20T03:43:35.693Z,994.5
2022-11-20T03:44:35.707Z,994.53
2022-11-20T03:45:35.719Z,994.52
2022-11-20T03:46:35.736Z,994.49
2022-11-20T03:47:35.746Z,994.48
2022-11-20T03:48:35.766Z,994.44
2022-11-20T03:49:35.773Z,994.42
2022-11-20T03:50:35.788Z,994.45
2022-11-20T03:51:35.851Z,994.46
2022-11-20T03:52:35.812Z,994.53
2022-11-20T03:53:35.823Z,994.52
2022-11-20T03:54:35.843Z,994.53
2022-11-20T03:55:35.852Z,994.49
2022-11-20T03:56:35.865Z,994.52
2022-11-20T03:57:35.879Z,994.52
2022-11-20T03:58:35.892Z,994.51
2022-11-20T03:59:35.907Z,994.54
2022-11-20T04:00:35.917Z,994.53
2022-11-20T04:01:35.988Z,994.54
2022-11-20T04:02:35.942Z,994.52
2022-11-20T04:03:35.956Z,994.54
2022-11-20T04:04:35.968Z,994.59
2022-11-20T04:05:35.980Z,994.58
2022-11-20T04:06:35.998Z,994.54
2022-11-20T04:07:36.052Z,994.53
2022-11-20T04:08:36.024Z,994.54
2022-11-20T04:09:36.034Z,994.53
2022-11-20T04:10:36.047Z,994.55
2022-11-20T04:11:36.060Z,994.49
2022-11-20T04:12:36.074Z,994.51
2022-11-20T04:13:36.083Z,994.53
2022-11-20T04:14:36.100Z,994.56
2022-11-20T04:15:38.442Z,994.56
2022-11-20T04:16:36.126Z,994.6
2022-11-20T04:17:36.136Z,994.59
2022-11-20T04:18:36.153Z,994.6
2022-11-20T04:19:36.164Z,994.63
2022-11-20T04:20:36.181Z,994.61
2022-11-20T04:21:36.193Z,994.64
2022-11-20T04:22:36.204Z,994.67
2022-11-20T04:23:36.218Z,994.66
2022-11-20T04:24:36.230Z,994.62
2022-11-20T04:25:36.244Z,994.65
2022-11-20T04:26:36.257Z,994.61
2022-11-20T04:27:36.267Z,994.64
2022-11-20T04:28:36.281Z,994.68
2022-11-20T04:29:36.297Z,994.64
2022-11-20T04:30:36.304Z,994.67
2022-11-20T04:31:36.324Z,994.62
2022-11-20T04:32:36.329Z,994.63
2022-11-20T04:33:36.346Z,994.63
2022-11-20T04:34:36.359Z,994.61
2022-11-20T04:35:36.378Z,994.6
2022-11-20T04:36:36.401Z,994.59
2022-11-20T04:37:36.399Z,994.63
2022-11-20T04:38:36.407Z,994.67
2022-11-20T04:39:36.424Z,994.7
2022-11-20T04:40:36.436Z,994.67
2022-11-20T04:41:36.452Z,994.66
2022-11-20T04:42:36.462Z,994.68
2022-11-20T04:43:36.474Z,994.69
2022-11-20T04:44:36.488Z,994.73
2022-11-20T04:45:36.500Z,994.67
2022-11-20T04:46:36.511Z,994.68
2022-11-20T04:47:36.525Z,994.66
2022-11-20T04:48:36.537Z,994.61
2022-11-20T04:49:36.614Z,994.64
2022-11-20T04:50:36.565Z,994.57
2022-11-20T04:51:36.877Z,994.57
2022-11-20T04:52:36.595Z,994.5
2022-11-20T04:53:36.602Z,994.53
2022-11-20T04:54:36.617Z,994.5
2022-11-20T04:55:36.628Z,994.52
2022-11-20T04:56:36.640Z,994.51
2022-11-20T04:57:36.655Z,994.5
2022-11-20T04:58:36.667Z,994.48
2022-11-20T04:59:36.683Z,994.48
2022-11-20T05:00:36.689Z,994.46
2022-11-20T05:01:36.746Z,994.44
2022-11-20T05:02:36.719Z,994.44
2022-11-20T05:03:41.109Z,994.38
2022-11-20T05:04:36.742Z,994.42
2022-11-20T05:05:36.759Z,994.41
2022-11-20T05:06:36.767Z,994.39
2022-11-20T05:07:36.811Z,994.37
2022-11-20T05:08:36.795Z,994.38
2022-11-20T05:09:36.811Z,994.4
2022-11-20T05:10:36.824Z,994.38
2022-11-20T05:11:36.835Z,994.41
2022-11-20T05:12:36.849Z,994.48
2022-11-20T05:13:36.859Z,994.47
2022-11-20T05:14:36.874Z,994.47
2022-11-20T05:15:36.887Z,994.49
2022-11-20T05:16:36.901Z,994.46
2022-11-20T05:17:36.912Z,994.49
2022-11-20T05:18:36.925Z,994.51
2022-11-20T05:19:36.937Z,994.5
2022-11-20T05:20:36.951Z,994.49
2022-11-20T05:21:36.965Z,994.47
2022-11-20T05:22:36.979Z,994.46
2022-11-20T05:23:36.991Z,994.47
2022-11-20T05:24:37.007Z,994.47
2022-11-20T05:25:37.016Z,994.53
2022-11-20T05:26:37.029Z,994.54
2022-11-20T05:27:37.040Z,994.52
2022-11-20T05:28:37.059Z,994.52
2022-11-20T05:29:37.070Z,994.53
2022-11-20T05:30:37.079Z,994.53
2022-11-20T05:31:37.090Z,994.5
2022-11-20T05:32:37.105Z,994.59
2022-11-20T05:33:37.118Z,994.53
2022-11-20T05:34:37.135Z,994.55
2022-11-20T05:35:37.142Z,994.54
2022-11-20T05:36:37.161Z,994.55
2022-11-20T05:37:37.168Z,994.6
2022-11-20T05:38:37.183Z,994.61
2022-11-20T05:39:37.196Z,994.57
2022-11-20T05:40:37.207Z,994.59
2022-11-20T05:41:37.222Z,994.56
2022-11-20T05:42:37.236Z,994.56
2022-11-20T05:43:37.245Z,994.59
2022-11-20T05:44:37.261Z,994.57
2022-11-20T05:45:37.284Z,994.56
2022-11-20T05:46:37.287Z,994.58
2022-11-20T05:47:37.301Z,994.57
2022-11-20T05:48:37.312Z,994.55
2022-11-20T05:49:37.323Z,994.58
2022-11-20T05:50:37.337Z,994.55
2022-11-20T05:51:37.448Z,994.53
2022-11-20T05:52:37.363Z,994.52
2022-11-20T05:53:37.370Z,994.51
2022-11-20T05:54:37.387Z,994.52
2022-11-20T05:55:37.401Z,994.52
2022-11-20T05:56:37.414Z,994.53
2022-11-20T05:57:37.426Z,994.54
2022-11-20T05:58:37.441Z,994.59
2022-11-20T05:59:37.452Z,994.52
2022-11-20T06:00:37.466Z,994.52
2022-11-20T06:01:37.476Z,994.52
2022-11-20T06:02:37.551Z,994.51
2022-11-20T06:03:37.512Z,994.56
2022-11-20T06:04:37.513Z,994.52
2022-11-20T06:05:37.530Z,994.52
2022-11-20T06:06:37.549Z,994.52
2022-11-20T06:07:37.604Z,994.5
2022-11-20T06:08:37.571Z,994.47
2022-11-20T06:09:37.581Z,994.47
2022-11-20T06:10:37.591Z,994.47
2022-11-20T06:11:37.608Z,994.47
2022-11-20T06:12:37.617Z,994.45
2022-11-20T06:13:41.742Z,994.43
2022-11-20T06:14:37.645Z,994.43
2022-11-20T06:15:37.659Z,994.42
2022-11-20T06:16:37.669Z,994.46
2022-11-20T06:17:37.683Z,994.44
2022-11-20T06:18:37.699Z,994.5
2022-11-20T06:19:37.710Z,994.53
2022-11-20T06:20:41.902Z,994.5
2022-11-20T06:21:37.744Z,994.49
2022-11-20T06:22:37.748Z,994.5
2022-11-20T06:23:37.762Z,994.49
2022-11-20T06:24:37.774Z,994.48
2022-11-20T06:25:37.787Z,994.48
2022-11-20T06:26:37.798Z,994.49
2022-11-20T06:27:37.809Z,994.53
2022-11-20T06:28:37.824Z,994.48
2022-11-20T06:29:37.836Z,994.52
2022-11-20T06:30:37.849Z,994.55
2022-11-20T06:31:37.865Z,994.54
2022-11-20T06:32:37.877Z,994.57
2022-11-20T06:33:37.890Z,994.57
2022-11-20T06:34:37.904Z,994.52
2022-11-20T06:35:37.917Z,994.56
2022-11-20T06:36:37.929Z,994.56
2022-11-20T06:37:37.943Z,994.53
2022-11-20T06:38:37.961Z,994.52
2022-11-20T06:39:37.970Z,994.51
2022-11-20T06:40:37.980Z,994.53
2022-11-20T06:41:37.994Z,994.49
2022-11-20T06:42:38.006Z,994.49
2022-11-20T06:43:38.019Z,994.45
2022-11-20T06:44:38.030Z,994.44
2022-11-20T06:45:38.047Z,994.43
2022-11-20T06:46:38.065Z,994.46
2022-11-20T06:47:38.071Z,994.42
2022-11-20T06:48:38.083Z,994.47
2022-11-20T06:49:38.102Z,994.45
2022-11-20T06:50:38.111Z,994.44
2022-11-20T06:51:38.424Z,994.49
2022-11-20T06:52:42.351Z,994.4
2022-11-20T06:53:38.149Z,994.44
2022-11-20T06:54:38.162Z,994.4
2022-11-20T06:55:38.192Z,994.4
2022-11-20T06:56:38.187Z,994.39
2022-11-20T06:57:38.201Z,994.45
2022-11-20T06:58:38.215Z,994.47
2022-11-20T06:59:38.225Z,994.47
2022-11-20T07:00:38.314Z,994.47
2022-11-20T07:01:38.252Z,994.47
2022-11-20T07:02:38.271Z,994.44
2022-11-20T07:03:38.282Z,994.46
2022-11-20T07:04:38.292Z,994.48
2022-11-20T07:05:38.302Z,994.43
2022-11-20T07:06:38.320Z,994.45
2022-11-20T07:07:38.352Z,994.54
2022-11-20T07:08:38.344Z,994.53
2022-11-20T07:09:38.357Z,994.51
2022-11-20T07:10:38.368Z,994.52
2022-11-20T07:11:38.382Z,994.58
2022-11-20T07:12:38.396Z,994.62
2022-11-20T07:13:38.409Z,994.62
2022-11-20T07:14:38.424Z,994.62
2022-11-20T07:15:38.432Z,994.58
2022-11-20T07:16:38.453Z,994.61
2022-11-20T07:17:38.459Z,994.64
2022-11-20T07:18:38.473Z,994.65
2022-11-20T07:19:38.486Z,994.66
2022-11-20T07:20:38.498Z,994.66
2022-11-20T07:21:38.509Z,994.69
2022-11-20T07:22:38.526Z,994.69
2022-11-20T07:23:38.538Z,994.71
2022-11-20T07:24:41.874Z,994.7
2022-11-20T07:25:38.563Z,994.74
2022-11-20T07:26:38.583Z,994.76
2022-11-20T07:27:38.590Z,994.75
2022-11-20T07:28:38.607Z,994.75
2022-11-20T07:29:38.620Z,994.72
2022-11-20T07:30:38.628Z,994.68
2022-11-20T07:31:38.641Z,994.73
2022-11-20T07:32:38.654Z,994.73
2022-11-20T07:33:38.672Z,994.74
2022-11-20T07:34:38.681Z,994.76
2022-11-20T07:35:38.695Z,994.73
2022-11-20T07:36:38.706Z,994.77
2022-11-20T07:37:38.721Z,994.8
2022-11-20T07:38:38.735Z,994.81
2022-11-20T07:39:38.745Z,994.83
2022-11-20T07:40:38.756Z,994.86
2022-11-20T07:41:38.768Z,994.84
2022-11-20T07:42:38.785Z,994.82
2022-11-20T07:43:41.350Z,994.9
2022-11-20T07:44:38.810Z,994.87
2022-11-20T07:45:38.822Z,994.89
2022-11-20T07:46:38.836Z,994.91
2022-11-20T07:47:38.850Z,994.84
2022-11-20T07:48:38.861Z,994.9
2022-11-20T07:49:38.876Z,994.86
2022-11-20T07:50:38.886Z,994.84
2022-11-20T07:51:38.954Z,994.85
2022-11-20T07:52:38.914Z,994.82
2022-11-20T07:53:38.931Z,994.81
2022-11-20T07:54:38.941Z,994.87
2022-11-20T07:55:38.953Z,994.91
2022-11-20T07:56:38.967Z,994.88
2022-11-20T07:57:38.984Z,994.88
2022-11-20T07:58:38.991Z,994.86
2022-11-20T07:59:39.005Z,994.84
2022-11-20T08:00:39.058Z,994.83
2022-11-20T08:01:39.034Z,994.88
2022-11-20T08:02:39.043Z,994.82
2022-11-20T08:03:39.060Z,994.82
2022-11-20T08:04:39.072Z,994.8
2022-11-20T08:05:39.085Z,994.85
2022-11-20T08:06:39.095Z,994.84
2022-11-20T08:07:39.152Z,994.86
2022-11-20T08:08:42.757Z,994.85
2022-11-20T08:09:39.137Z,994.84
2022-11-20T08:10:39.149Z,994.85
2022-11-20T08:11:39.164Z,994.81
2022-11-20T08:12:39.173Z,994.83
2022-11-20T08:13:39.189Z,994.81
2022-11-20T08:14:39.200Z,994.8
2022-11-20T08:15:39.217Z,994.75
2022-11-20T08:16:39.225Z,994.79
2022-11-20T08:17:39.244Z,994.82
2022-11-20T08:18:39.252Z,994.8
2022-11-20T08:19:39.268Z,994.8
2022-11-20T08:20:39.280Z,994.8
2022-11-20T08:21:39.297Z,994.83
2022-11-20T08:22:39.308Z,994.82
2022-11-20T08:23:39.320Z,994.75
2022-11-20T08:24:39.330Z,994.76
2022-11-20T08:25:39.349Z,994.77
2022-11-20T08:26:39.362Z,994.75
2022-11-20T08:27:39.371Z,994.76
2022-11-20T08:28:39.384Z,994.79
2022-11-20T08:29:39.400Z,994.77
2022-11-20T08:30:39.412Z,994.75
2022-11-20T08:31:39.456Z,994.76
2022-11-20T08:32:39.438Z,994.8
2022-11-20T08:33:39.451Z,994.75
2022-11-20T08:34:39.465Z,994.72
2022-11-20T08:35:39.480Z,994.78
2022-11-20T08:36:39.491Z,994.74
2022-11-20T08:37:39.503Z,994.72
2022-11-20T08:38:39.517Z,994.71
2022-11-20T08:39:39.528Z,994.73
2022-11-20T08:40:39.542Z,994.75
2022-11-20T08:41:39.555Z,994.75
2022-11-20T08:42:39.571Z,994.74
2022-11-20T08:43:39.582Z,994.77
2022-11-20T08:44:39.594Z,994.78
2022-11-20T08:45:39.609Z,994.81
2022-11-20T08:46:39.625Z,994.8
2022-11-20T08:47:39.635Z,994.84
2022-11-20T08:48:39.649Z,994.86
2022-11-20T08:49:39.658Z,994.83
2022-11-20T08:50:39.674Z,994.83
2022-11-20T08:51:39.895Z,994.81
2022-11-20T08:52:40.018Z,994.8
2022-11-20T08:53:39.716Z,994.81
2022-11-20T08:54:39.728Z,994.83
2022-11-20T08:55:39.742Z,994.87
2022-11-20T08:56:39.756Z,994.89
2022-11-20T08:57:39.764Z,994.85
2022-11-20T08:59:02.287Z,994.92
2022-11-20T09:00:11.907Z,994.89
2022-11-20T09:01:11.753Z,994.88
2022-11-20T09:02:11.715Z,994.87
2022-11-20T09:03:11.732Z,994.91
2022-11-20T09:04:11.744Z,994.86
2022-11-20T09:05:11.757Z,994.91
2022-11-20T09:06:11.770Z,994.96
2022-11-20T09:07:11.806Z,994.95
2022-11-20T09:08:11.795Z,994.86
2022-11-20T09:09:11.812Z,994.88
2022-11-20T09:10:27.325Z,994.92
2022-11-20T09:11:11.835Z,994.9
2022-11-20T09:12:11.850Z,994.9
2022-11-20T09:13:11.864Z,994.89
2022-11-20T09:14:11.873Z,994.9
2022-11-20T09:15:11.888Z,994.89
2022-11-20T09:16:11.902Z,994.89
2022-11-20T09:17:11.918Z,994.87
2022-11-20T09:18:11.929Z,994.9
2022-11-20T09:20:11.955Z,994.87
2022-11-20T09:21:12.030Z,994.9
2022-11-20T09:22:11.981Z,994.87
2022-11-20T09:23:11.996Z,994.87
2022-11-20T09:24:12.008Z,994.86
2022-11-20T09:25:12.023Z,994.86
2022-11-20T09:26:12.033Z,994.86
2022-11-20T09:27:12.049Z,994.87
2022-11-20T09:28:12.062Z,994.87
2022-11-20T09:29:12.081Z,994.88
2022-11-20T09:30:12.095Z,994.86
2022-11-20T09:31:12.100Z,994.88
2022-11-20T09:32:12.125Z,994.89
2022-11-20T09:33:12.130Z,994.89
2022-11-20T09:34:12.145Z,994.85
2022-11-20T09:35:12.217Z,994.86
2022-11-20T09:36:12.169Z,994.85
2022-11-20T09:37:12.181Z,994.84
2022-11-20T09:38:12.196Z,994.84
2022-11-20T09:39:12.209Z,994.8
2022-11-20T09:40:12.226Z,994.78
2022-11-20T09:41:12.239Z,994.76
2022-11-20T09:42:12.251Z,994.73
2022-11-20T09:43:12.263Z,994.7
2022-11-20T09:44:12.277Z,994.66
2022-11-20T09:45:12.292Z,994.69
2022-11-20T09:46:12.303Z,994.66
2022-11-20T09:47:12.316Z,994.63
2022-11-20T09:48:12.337Z,994.66
2022-11-20T09:49:12.344Z,994.58
2022-11-20T09:50:12.359Z,994.6
2022-11-20T09:51:12.372Z,994.6
2022-11-20T09:52:12.586Z,994.6
2022-11-20T09:53:12.401Z,994.64
2022-11-20T09:54:12.411Z,994.69
2022-11-20T09:55:12.423Z,994.69
2022-11-20T09:56:12.441Z,994.69
2022-11-20T09:57:12.451Z,994.68
2022-11-20T09:58:12.463Z,994.63
2022-11-20T09:59:12.481Z,994.65
2022-11-20T10:00:12.497Z,994.59
2022-11-20T10:01:12.551Z,994.6
2022-11-20T10:02:12.519Z,994.56
2022-11-20T10:03:12.534Z,994.55
2022-11-20T10:04:12.547Z,994.57
2022-11-20T10:05:12.558Z,994.58
2022-11-20T10:06:12.573Z,994.59
2022-11-20T10:08:12.708Z,994.53
2022-11-20T10:09:12.611Z,994.56
2022-11-20T10:10:12.632Z,994.55
2022-11-20T10:11:12.638Z,994.53
2022-11-20T10:12:12.657Z,994.49
2022-11-20T10:13:12.666Z,994.44
2022-11-20T10:14:12.685Z,994.41
2022-11-20T10:15:12.691Z,994.41
2022-11-20T10:16:12.906Z,994.37
2022-11-20T10:17:12.924Z,994.39
2022-11-20T10:18:12.880Z,994.35
2022-11-20T10:19:12.947Z,994.32
2022-11-20T10:20:12.966Z,994.37
2022-11-20T10:21:12.930Z,994.35
2022-11-20T10:22:12.885Z,994.33
2022-11-20T10:23:12.904Z,994.32
2022-11-20T10:24:12.868Z,994.26
2022-11-20T10:25:12.933Z,994.26
2022-11-20T10:26:12.938Z,994.25
2022-11-20T10:27:12.902Z,994.25
2022-11-20T10:28:12.916Z,994.21
2022-11-20T10:29:12.934Z,994.2
2022-11-20T10:30:12.953Z,994.2
2022-11-20T10:31:12.912Z,994.2
2022-11-20T10:32:12.918Z,994.18
2022-11-20T10:33:12.935Z,994.18
2022-11-20T10:34:13.511Z,994.15
2022-11-20T10:35:12.962Z,994.15
2022-11-20T10:36:12.974Z,994.14
2022-11-20T10:37:12.985Z,994.14
2022-11-20T10:38:12.997Z,994.12
2022-11-20T10:39:13.011Z,994.13
2022-11-20T10:40:13.028Z,994.13
2022-11-20T10:41:13.039Z,994.1
2022-11-20T10:42:13.055Z,994.13
2022-11-20T10:43:13.065Z,994.13
2022-11-20T10:44:13.076Z,994.06
2022-11-20T10:45:13.096Z,994.06
2022-11-20T10:46:13.104Z,994.06
2022-11-20T10:47:13.121Z,994.04
2022-11-20T10:48:13.133Z,994.04
2022-11-20T10:49:13.149Z,994.04
2022-11-20T10:50:15.363Z,994.07
2022-11-20T10:51:13.182Z,994.09
2022-11-20T10:52:13.289Z,994.06
2022-11-20T10:53:13.204Z,994.02
2022-11-20T10:54:13.211Z,994.04
2022-11-20T10:55:13.229Z,994.03
2022-11-20T10:56:13.240Z,994.04
2022-11-20T10:57:13.258Z,993.99
2022-11-20T10:58:13.272Z,993.99
2022-11-20T10:59:13.287Z,993.92
2022-11-20T11:00:13.299Z,993.88
2022-11-20T11:01:13.321Z,993.87
2022-11-20T11:02:13.326Z,993.87
2022-11-20T11:03:13.340Z,993.84
2022-11-20T11:04:13.349Z,993.87
2022-11-20T11:05:14.661Z,993.82
2022-11-20T11:06:13.379Z,993.83
2022-11-20T11:07:13.481Z,993.81
2022-11-20T11:08:13.406Z,993.79
2022-11-20T11:09:13.422Z,993.8
2022-11-20T11:10:13.431Z,993.8
2022-11-20T11:11:13.446Z,993.76
2022-11-20T11:12:13.462Z,993.73
2022-11-20T11:13:13.467Z,993.72
2022-11-20T11:14:13.480Z,993.73
2022-11-20T11:15:13.498Z,993.7
2022-11-20T11:16:13.511Z,993.67
2022-11-20T11:17:13.525Z,993.68
2022-11-20T11:18:13.582Z,993.7
2022-11-20T11:19:13.553Z,993.72
2022-11-20T11:20:13.566Z,993.7
2022-11-20T11:21:13.627Z,993.68
2022-11-20T11:22:13.592Z,993.66
2022-11-20T11:23:13.603Z,993.66
2022-11-20T11:24:35.068Z,993.7
2022-11-20T11:25:13.638Z,993.61
2022-11-20T11:26:13.646Z,993.61
2022-11-20T11:27:16.745Z,993.65
2022-11-20T11:28:13.674Z,993.64
2022-11-20T11:29:13.687Z,993.59
2022-11-20T11:30:13.758Z,993.57
2022-11-20T11:31:13.717Z,993.58
2022-11-20T11:32:13.730Z,993.5
2022-11-20T11:33:13.742Z,993.5
2022-11-20T11:34:13.756Z,993.49
2022-11-20T11:35:13.765Z,993.5
2022-11-20T11:36:13.782Z,993.54
2022-11-20T11:37:13.796Z,993.54
2022-11-20T11:38:13.808Z,993.57
2022-11-20T11:39:13.823Z,993.57
2022-11-20T11:40:23.681Z,993.55
2022-11-20T11:41:13.853Z,993.53
2022-11-20T11:42:13.868Z,993.54
2022-11-20T11:43:13.876Z,993.56
2022-11-20T11:44:13.892Z,993.54
2022-11-20T11:45:13.905Z,993.53
2022-11-20T11:46:13.925Z,993.51
2022-11-20T11:47:13.940Z,993.54
2022-11-20T11:48:13.946Z,993.56
2022-11-20T11:49:13.966Z,993.55
2022-11-20T11:50:13.976Z,993.56
2022-11-20T11:51:13.992Z,993.51
2022-11-20T11:52:14.207Z,993.54
2022-11-20T11:53:14.015Z,993.44
2022-11-20T11:54:14.034Z,993.47
2022-11-20T11:55:14.048Z,993.4
2022-11-20T11:56:14.062Z,993.4
2022-11-20T11:57:14.074Z,993.41
2022-11-20T11:58:14.084Z,993.41
2022-11-20T11:59:14.109Z,993.39
2022-11-20T12:00:14.118Z,993.38
2022-11-20T12:01:14.130Z,993.4
2022-11-20T12:02:14.170Z,993.39
2022-11-20T12:03:14.156Z,993.36
2022-11-20T12:04:14.172Z,993.37
2022-11-20T12:05:14.192Z,993.33
2022-11-20T12:06:14.200Z,993.29
2022-11-20T12:07:39.224Z,993.29
2022-11-20T12:08:14.247Z,993.33
2022-11-20T12:09:14.243Z,993.32
2022-11-20T12:10:14.255Z,993.3
2022-11-20T12:11:14.271Z,993.28
2022-11-20T12:12:14.281Z,993.28
2022-11-20T12:13:14.301Z,993.32
2022-11-20T12:14:14.309Z,993.3
2022-11-20T12:15:14.328Z,993.26
2022-11-20T12:16:14.331Z,993.25
2022-11-20T12:17:14.351Z,993.25
2022-11-20T12:18:14.364Z,993.25
2022-11-20T12:19:14.380Z,993.29
2022-11-20T12:20:14.394Z,993.26
2022-11-20T12:21:14.408Z,993.27
2022-11-20T12:22:14.418Z,993.23
2022-11-20T12:23:14.431Z,993.21
2022-11-20T12:24:14.447Z,993.2
2022-11-20T12:25:14.462Z,993.17
2022-11-20T12:26:14.471Z,993.21
2022-11-20T12:27:14.491Z,993.16
2022-11-20T12:28:14.503Z,993.16
2022-11-20T12:29:14.516Z,993.15
2022-11-20T12:30:14.530Z,993.12
2022-11-20T12:31:14.544Z,993.11
2022-11-20T12:32:14.558Z,993.11
2022-11-20T12:33:14.574Z,993.08
2022-11-20T12:34:14.587Z,993.07